sensor_id;sensor_type;location;lat;lon;timestamp;P1;durP1;ratioP1;P2;durP2;ratioP2
40787;SDS011;26497;52.494;7.546;2023-06-22T00:00:45;1999.90;;;999.90;;
40787;SDS011;26497;52.494;7.546;2023-06-22T00:03:12;1999.90;;;999.90;;
40787;SDS011;26497;52.494;7.546;2023-06-22T00:05:39;1999.90;;;999.90;;
40787;SDS011;26497;52.494;7.546;2023-06-22T00:08:08;1999.90;;;999.90;;
40787;SDS011;26497;52.494;7.546;2023-06-22T00:10:35;1999.90;;;999.90;;
40787;SDS011;26497;52.494;7.546;2023-06-22T00:13:02;1999.90;;;999.90;;
40787;SDS011;26497;52.494;7.546;2023-06-22T00:15:30;1999.90;;;999.90;;
40787;SDS011;26497;52.494;7.546;2023-06-22T00:17:57;1999.90;;;999.90;;
40787;SDS011;26497;52.494;7.546;2023-06-22T00:20:25;1999.90;;;999.90;;
40787;SDS011;26497;52.494;7.546;2023-06-22T00:22:54;1999.90;;;999.90;;
40787;SDS011;26497;52.494;7.546;2023-06-22T00:25:58;1999.90;;;999.90;;
40787;SDS011;26497;52.494;7.546;2023-06-22T00:28:37;1999.90;;;999.90;;
40787;SDS011;26497;52.494;7.546;2023-06-22T00:34:34;1999.90;;;999.90;;
40787;SDS011;26497;52.494;7.546;2023-06-22T00:37:59;1999.90;;;999.90;;
40787;SDS011;26497;52.494;7.546;2023-06-22T00:45:08;1999.90;;;999.90;;
40787;SDS011;26497;52.494;7.546;2023-06-22T00:48:05;1999.90;;;999.90;;
40787;SDS011;26497;52.494;7.546;2023-06-22T00:50:34;1999.90;;;999.90;;
40787;SDS011;26497;52.494;7.546;2023-06-22T00:53:03;1999.90;;;999.90;;
40787;SDS011;26497;52.494;7.546;2023-06-22T00:55:33;1999.90;;;999.90;;
40787;SDS011;26497;52.494;7.546;2023-06-22T00:58:03;1999.90;;;999.90;;
40787;SDS011;26497;52.494;7.546;2023-06-22T01:00:37;1999.90;;;999.90;;
40787;SDS011;26497;52.494;7.546;2023-06-22T01:03:08;1999.90;;;999.90;;
40787;SDS011;26497;52.494;7.546;2023-06-22T01:05:35;1999.90;;;999.90;;
40787;SDS011;26497;52.494;7.546;2023-06-22T01:08:05;1999.90;;;999.90;;
40787;SDS011;26497;52.494;7.546;2023-06-22T01:10:45;1999.90;;;999.90;;
40787;SDS011;26497;52.494;7.546;2023-06-22T01:13:20;1999.90;;;999.90;;
40787;SDS011;26497;52.494;7.546;2023-06-22T01:15:58;1999.90;;;999.90;;
40787;SDS011;26497;52.494;7.546;2023-06-22T01:18:30;1999.90;;;999.90;;
40787;SDS011;26497;52.494;7.546;2023-06-22T01:21:01;1999.90;;;999.90;;
40787;SDS011;26497;52.494;7.546;2023-06-22T01:23:36;1999.90;;;999.90;;
40787;SDS011;26497;52.494;7.546;2023-06-22T01:26:20;1999.90;;;999.90;;
40787;SDS011;26497;52.494;7.546;2023-06-22T01:29:01;1999.90;;;999.90;;
40787;SDS011;26497;52.494;7.546;2023-06-22T01:31:32;1999.90;;;999.90;;
40787;SDS011;26497;52.494;7.546;2023-06-22T01:34:04;1999.90;;;999.90;;
40787;SDS011;26497;52.494;7.546;2023-06-22T01:36:33;1999.90;;;999.90;;
40787;SDS011;26497;52.494;7.546;2023-06-22T01:39:00;1999.90;;;999.90;;
40787;SDS011;26497;52.494;7.546;2023-06-22T01:41:32;1999.90;;;999.90;;
40787;SDS011;26497;52.494;7.546;2023-06-22T01:44:05;1999.90;;;999.90;;
40787;SDS011;26497;52.494;7.546;2023-06-22T01:46:34;1999.90;;;999.90;;
40787;SDS011;26497;52.494;7.546;2023-06-22T01:49:02;1999.90;;;999.90;;
40787;SDS011;26497;52.494;7.546;2023-06-22T01:51:31;1999.90;;;999.90;;
40787;SDS011;26497;52.494;7.546;2023-06-22T01:53:59;1999.90;;;999.90;;
40787;SDS011;26497;52.494;7.546;2023-06-22T01:56:28;1999.90;;;999.90;;
40787;SDS011;26497;52.494;7.546;2023-06-22T01:58:57;1999.90;;;999.90;;
40787;SDS011;26497;52.494;7.546;2023-06-22T02:01:33;1999.90;;;999.90;;
40787;SDS011;26497;52.494;7.546;2023-06-22T02:04:09;1999.90;;;999.90;;
40787;SDS011;26497;52.494;7.546;2023-06-22T02:06:45;1999.90;;;999.90;;
40787;SDS011;26497;52.494;7.546;2023-06-22T02:09:15;1999.90;;;999.90;;
40787;SDS011;26497;52.494;7.546;2023-06-22T02:11:45;1999.90;;;999.90;;
40787;SDS011;26497;52.494;7.546;2023-06-22T02:14:23;1999.90;;;999.90;;
40787;SDS011;26497;52.494;7.546;2023-06-22T02:17:19;1999.90;;;999.90;;
40787;SDS011;26497;52.494;7.546;2023-06-22T02:19:47;1999.90;;;999.90;;
40787;SDS011;26497;52.494;7.546;2023-06-22T02:22:14;1999.90;;;999.90;;
40787;SDS011;26497;52.494;7.546;2023-06-22T02:24:41;1999.90;;;999.90;;
40787;SDS011;26497;52.494;7.546;2023-06-22T02:27:09;1999.90;;;999.90;;
40787;SDS011;26497;52.494;7.546;2023-06-22T02:29:36;1999.90;;;999.90;;
40787;SDS011;26497;52.494;7.546;2023-06-22T02:32:03;1999.90;;;999.90;;
40787;SDS011;26497;52.494;7.546;2023-06-22T02:34:33;1999.90;;;999.90;;
40787;SDS011;26497;52.494;7.546;2023-06-22T02:37:01;1999.90;;;999.90;;
40787;SDS011;26497;52.494;7.546;2023-06-22T02:39:30;1999.90;;;999.90;;
40787;SDS011;26497;52.494;7.546;2023-06-22T02:41:57;1999.90;;;999.90;;
40787;SDS011;26497;52.494;7.546;2023-06-22T02:44:24;1999.90;;;999.90;;
40787;SDS011;26497;52.494;7.546;2023-06-22T02:46:51;1999.90;;;999.90;;
40787;SDS011;26497;52.494;7.546;2023-06-22T02:49:19;1999.90;;;999.90;;
40787;SDS011;26497;52.494;7.546;2023-06-22T02:51:48;1999.90;;;999.90;;
40787;SDS011;26497;52.494;7.546;2023-06-22T02:54:15;1999.90;;;999.90;;
40787;SDS011;26497;52.494;7.546;2023-06-22T02:56:42;1999.90;;;999.90;;
40787;SDS011;26497;52.494;7.546;2023-06-22T02:59:10;1999.90;;;999.90;;
40787;SDS011;26497;52.494;7.546;2023-06-22T03:01:37;1999.90;;;999.90;;
40787;SDS011;26497;52.494;7.546;2023-06-22T03:04:06;1999.90;;;999.90;;
40787;SDS011;26497;52.494;7.546;2023-06-22T03:06:33;1999.90;;;999.90;;
40787;SDS011;26497;52.494;7.546;2023-06-22T03:09:02;1999.90;;;999.90;;
40787;SDS011;26497;52.494;7.546;2023-06-22T03:11:31;1999.90;;;999.90;;
40787;SDS011;26497;52.494;7.546;2023-06-22T03:13:59;1999.90;;;999.90;;
40787;SDS011;26497;52.494;7.546;2023-06-22T03:16:27;1999.90;;;999.90;;
40787;SDS011;26497;52.494;7.546;2023-06-22T03:18:55;1999.90;;;999.90;;
40787;SDS011;26497;52.494;7.546;2023-06-22T03:21:22;1999.90;;;999.90;;
40787;SDS011;26497;52.494;7.546;2023-06-22T03:23:50;1999.90;;;999.90;;
40787;SDS011;26497;52.494;7.546;2023-06-22T03:26:19;1999.90;;;999.90;;
40787;SDS011;26497;52.494;7.546;2023-06-22T03:28:49;1999.90;;;999.90;;
40787;SDS011;26497;52.494;7.546;2023-06-22T03:31:54;1999.90;;;999.90;;
40787;SDS011;26497;52.494;7.546;2023-06-22T03:34:34;1999.90;;;999.90;;
40787;SDS011;26497;52.494;7.546;2023-06-22T03:37:37;1999.90;;;999.90;;
40787;SDS011;26497;52.494;7.546;2023-06-22T03:40:44;1999.90;;;999.90;;
40787;SDS011;26497;52.494;7.546;2023-06-22T03:44:20;1999.90;;;999.90;;
40787;SDS011;26497;52.494;7.546;2023-06-22T03:47:34;1999.90;;;999.90;;
40787;SDS011;26497;52.494;7.546;2023-06-22T03:54:48;1999.90;;;999.90;;
40787;SDS011;26497;52.494;7.546;2023-06-22T03:57:44;1999.90;;;999.90;;
40787;SDS011;26497;52.494;7.546;2023-06-22T04:03:02;1999.90;;;999.90;;
40787;SDS011;26497;52.494;7.546;2023-06-22T04:05:33;1999.90;;;999.90;;
40787;SDS011;26497;52.494;7.546;2023-06-22T04:08:12;1999.90;;;999.90;;
40787;SDS011;26497;52.494;7.546;2023-06-22T04:10:42;1999.90;;;999.90;;
40787;SDS011;26497;52.494;7.546;2023-06-22T04:13:10;1999.90;;;999.90;;
40787;SDS011;26497;52.494;7.546;2023-06-22T04:15:39;1999.90;;;999.90;;
40787;SDS011;26497;52.494;7.546;2023-06-22T04:18:09;1999.90;;;999.90;;
40787;SDS011;26497;52.494;7.546;2023-06-22T04:20:37;1999.90;;;999.90;;
40787;SDS011;26497;52.494;7.546;2023-06-22T04:23:04;1999.90;;;999.90;;
40787;SDS011;26497;52.494;7.546;2023-06-22T04:25:33;266.58;;;248.85;;
40787;SDS011;26497;52.494;7.546;2023-06-22T04:28:20;256.92;;;239.73;;
40787;SDS011;26497;52.494;7.546;2023-06-22T04:30:49;261.48;;;244.60;;
40787;SDS011;26497;52.494;7.546;2023-06-22T04:33:20;239.25;;;223.85;;
40787;SDS011;26497;52.494;7.546;2023-06-22T04:35:50;226.40;;;211.38;;
40787;SDS011;26497;52.494;7.546;2023-06-22T04:38:19;198.55;;;185.10;;
40787;SDS011;26497;52.494;7.546;2023-06-22T04:40:49;159.23;;;147.55;;
40787;SDS011;26497;52.494;7.546;2023-06-22T04:43:16;135.32;;;125.72;;
40787;SDS011;26497;52.494;7.546;2023-06-22T04:45:44;122.40;;;113.78;;
40787;SDS011;26497;52.494;7.546;2023-06-22T04:48:17;110.70;;;102.38;;
40787;SDS011;26497;52.494;7.546;2023-06-22T04:50:46;104.53;;;97.05;;
40787;SDS011;26497;52.494;7.546;2023-06-22T04:53:17;103.03;;;95.18;;
40787;SDS011;26497;52.494;7.546;2023-06-22T04:55:44;102.45;;;95.13;;
40787;SDS011;26497;52.494;7.546;2023-06-22T04:58:14;100.97;;;93.25;;
40787;SDS011;26497;52.494;7.546;2023-06-22T05:00:48;98.35;;;91.07;;
40787;SDS011;26497;52.494;7.546;2023-06-22T05:03:18;96.35;;;89.57;;
40787;SDS011;26497;52.494;7.546;2023-06-22T05:05:45;93.68;;;87.05;;
40787;SDS011;26497;52.494;7.546;2023-06-22T05:08:15;98.32;;;91.40;;
40787;SDS011;26497;52.494;7.546;2023-06-22T05:10:45;108.72;;;101.03;;
40787;SDS011;26497;52.494;7.546;2023-06-22T05:13:13;120.30;;;112.18;;
40787;SDS011;26497;52.494;7.546;2023-06-22T05:15:40;129.57;;;120.82;;
40787;SDS011;26497;52.494;7.546;2023-06-22T05:18:07;134.27;;;125.22;;
40787;SDS011;26497;52.494;7.546;2023-06-22T05:20:38;143.52;;;133.90;;
40787;SDS011;26497;52.494;7.546;2023-06-22T05:23:05;154.50;;;144.63;;
40787;SDS011;26497;52.494;7.546;2023-06-22T05:25:35;147.93;;;138.15;;
40787;SDS011;26497;52.494;7.546;2023-06-22T05:28:02;133.45;;;124.50;;
40787;SDS011;26497;52.494;7.546;2023-06-22T05:30:35;122.15;;;114.05;;
40787;SDS011;26497;52.494;7.546;2023-06-22T05:33:03;119.38;;;110.85;;
40787;SDS011;26497;52.494;7.546;2023-06-22T05:35:30;118.22;;;109.78;;
40787;SDS011;26497;52.494;7.546;2023-06-22T05:37:59;116.90;;;109.05;;
40787;SDS011;26497;52.494;7.546;2023-06-22T05:40:26;114.38;;;106.47;;
40787;SDS011;26497;52.494;7.546;2023-06-22T05:42:54;112.97;;;105.30;;
40787;SDS011;26497;52.494;7.546;2023-06-22T05:45:23;114.82;;;106.82;;
40787;SDS011;26497;52.494;7.546;2023-06-22T05:47:53;117.90;;;110.20;;
40787;SDS011;26497;52.494;7.546;2023-06-22T05:50:27;122.47;;;114.07;;
40787;SDS011;26497;52.494;7.546;2023-06-22T05:52:54;129.63;;;121.75;;
40787;SDS011;26497;52.494;7.546;2023-06-22T05:55:23;136.48;;;127.70;;
40787;SDS011;26497;52.494;7.546;2023-06-22T05:57:50;1999.90;;;999.90;;
40787;SDS011;26497;52.494;7.546;2023-06-22T06:00:18;1999.90;;;999.90;;
40787;SDS011;26497;52.494;7.546;2023-06-22T06:02:47;1999.90;;;999.90;;
40787;SDS011;26497;52.494;7.546;2023-06-22T06:05:14;1999.90;;;999.90;;
40787;SDS011;26497;52.494;7.546;2023-06-22T06:07:42;1999.90;;;999.90;;
40787;SDS011;26497;52.494;7.546;2023-06-22T06:10:10;1999.90;;;999.90;;
40787;SDS011;26497;52.494;7.546;2023-06-22T06:12:39;1999.90;;;999.90;;
40787;SDS011;26497;52.494;7.546;2023-06-22T06:15:07;1999.90;;;999.90;;
40787;SDS011;26497;52.494;7.546;2023-06-22T06:17:35;1999.90;;;999.90;;
40787;SDS011;26497;52.494;7.546;2023-06-22T06:20:11;1999.90;;;999.90;;
40787;SDS011;26497;52.494;7.546;2023-06-22T06:22:39;1999.90;;;999.90;;
40787;SDS011;26497;52.494;7.546;2023-06-22T06:25:09;1999.90;;;999.90;;
40787;SDS011;26497;52.494;7.546;2023-06-22T06:27:42;1999.90;;;999.90;;
40787;SDS011;26497;52.494;7.546;2023-06-22T06:30:10;1999.90;;;999.90;;
40787;SDS011;26497;52.494;7.546;2023-06-22T06:32:39;1999.90;;;999.90;;
40787;SDS011;26497;52.494;7.546;2023-06-22T06:35:09;1999.90;;;999.90;;
40787;SDS011;26497;52.494;7.546;2023-06-22T06:37:38;1999.90;;;999.90;;
40787;SDS011;26497;52.494;7.546;2023-06-22T06:40:07;1999.90;;;999.90;;
40787;SDS011;26497;52.494;7.546;2023-06-22T06:42:37;1999.90;;;999.90;;
40787;SDS011;26497;52.494;7.546;2023-06-22T06:45:08;1999.90;;;999.90;;
40787;SDS011;26497;52.494;7.546;2023-06-22T06:47:36;1999.90;;;999.90;;
40787;SDS011;26497;52.494;7.546;2023-06-22T06:50:05;1999.90;;;999.90;;
40787;SDS011;26497;52.494;7.546;2023-06-22T06:52:33;1999.90;;;999.90;;
40787;SDS011;26497;52.494;7.546;2023-06-22T06:55:01;1999.90;;;999.90;;
40787;SDS011;26497;52.494;7.546;2023-06-22T06:57:30;1999.90;;;999.90;;
40787;SDS011;26497;52.494;7.546;2023-06-22T06:59:59;1999.90;;;999.90;;
40787;SDS011;26497;52.494;7.546;2023-06-22T07:02:27;1999.90;;;999.90;;
40787;SDS011;26497;52.494;7.546;2023-06-22T07:04:55;1999.90;;;999.90;;
40787;SDS011;26497;52.494;7.546;2023-06-22T07:07:22;1999.90;;;999.90;;
40787;SDS011;26497;52.494;7.546;2023-06-22T07:09:50;1999.90;;;999.90;;
40787;SDS011;26497;52.494;7.546;2023-06-22T07:12:18;1999.90;;;999.90;;
40787;SDS011;26497;52.494;7.546;2023-06-22T07:14:50;1999.90;;;999.90;;
40787;SDS011;26497;52.494;7.546;2023-06-22T07:17:18;1999.90;;;999.90;;
40787;SDS011;26497;52.494;7.546;2023-06-22T07:19:46;1999.90;;;999.90;;
40787;SDS011;26497;52.494;7.546;2023-06-22T07:22:13;1999.90;;;999.90;;
40787;SDS011;26497;52.494;7.546;2023-06-22T07:24:41;1999.90;;;999.90;;
40787;SDS011;26497;52.494;7.546;2023-06-22T07:27:08;1999.90;;;999.90;;
40787;SDS011;26497;52.494;7.546;2023-06-22T07:29:37;1999.90;;;999.90;;
40787;SDS011;26497;52.494;7.546;2023-06-22T07:34:34;1999.90;;;999.90;;
40787;SDS011;26497;52.494;7.546;2023-06-22T07:37:03;1999.90;;;999.90;;
40787;SDS011;26497;52.494;7.546;2023-06-22T07:39:31;1999.90;;;999.90;;
40787;SDS011;26497;52.494;7.546;2023-06-22T07:41:59;1999.90;;;999.90;;
40787;SDS011;26497;52.494;7.546;2023-06-22T07:44:26;1999.90;;;999.90;;
40787;SDS011;26497;52.494;7.546;2023-06-22T07:46:53;1999.90;;;999.90;;
40787;SDS011;26497;52.494;7.546;2023-06-22T07:49:20;1999.90;;;999.90;;
40787;SDS011;26497;52.494;7.546;2023-06-22T07:51:48;66.13;;;62.35;;
40787;SDS011;26497;52.494;7.546;2023-06-22T07:54:17;67.18;;;63.28;;
40787;SDS011;26497;52.494;7.546;2023-06-22T07:56:46;83.05;;;78.35;;
40787;SDS011;26497;52.494;7.546;2023-06-22T07:59:14;1999.90;;;999.90;;
40787;SDS011;26497;52.494;7.546;2023-06-22T08:01:41;1999.90;;;999.90;;
40787;SDS011;26497;52.494;7.546;2023-06-22T08:04:09;1999.90;;;999.90;;
40787;SDS011;26497;52.494;7.546;2023-06-22T08:06:36;69.28;;;65.22;;
40787;SDS011;26497;52.494;7.546;2023-06-22T08:09:03;548.05;;;295.45;;
40787;SDS011;26497;52.494;7.546;2023-06-22T08:11:32;1999.90;;;999.90;;
40787;SDS011;26497;52.494;7.546;2023-06-22T08:13:59;1999.90;;;999.90;;
40787;SDS011;26497;52.494;7.546;2023-06-22T08:16:27;1999.90;;;999.90;;
40787;SDS011;26497;52.494;7.546;2023-06-22T08:18:54;1999.90;;;999.90;;
40787;SDS011;26497;52.494;7.546;2023-06-22T08:21:21;1999.90;;;999.90;;
40787;SDS011;26497;52.494;7.546;2023-06-22T08:23:49;1999.90;;;999.90;;
40787;SDS011;26497;52.494;7.546;2023-06-22T08:26:16;1999.90;;;999.90;;
40787;SDS011;26497;52.494;7.546;2023-06-22T08:28:44;1999.90;;;999.90;;
40787;SDS011;26497;52.494;7.546;2023-06-22T08:31:12;1999.90;;;999.90;;
40787;SDS011;26497;52.494;7.546;2023-06-22T08:33:39;1999.90;;;999.90;;
40787;SDS011;26497;52.494;7.546;2023-06-22T08:36:08;1999.90;;;999.90;;
40787;SDS011;26497;52.494;7.546;2023-06-22T08:38:36;1999.90;;;999.90;;
40787;SDS011;26497;52.494;7.546;2023-06-22T08:41:03;1999.90;;;999.90;;
40787;SDS011;26497;52.494;7.546;2023-06-22T08:43:30;1999.90;;;999.90;;
40787;SDS011;26497;52.494;7.546;2023-06-22T08:45:59;1999.90;;;999.90;;
40787;SDS011;26497;52.494;7.546;2023-06-22T08:48:27;1999.90;;;999.90;;
40787;SDS011;26497;52.494;7.546;2023-06-22T08:50:55;1999.90;;;999.90;;
40787;SDS011;26497;52.494;7.546;2023-06-22T08:53:23;1999.90;;;999.90;;
40787;SDS011;26497;52.494;7.546;2023-06-22T08:55:50;1999.90;;;999.90;;
40787;SDS011;26497;52.494;7.546;2023-06-22T08:58:17;1999.90;;;999.90;;
40787;SDS011;26497;52.494;7.546;2023-06-22T09:00:46;1999.90;;;999.90;;
40787;SDS011;26497;52.494;7.546;2023-06-22T09:03:15;1999.90;;;999.90;;
40787;SDS011;26497;52.494;7.546;2023-06-22T09:05:42;1999.90;;;999.90;;
40787;SDS011;26497;52.494;7.546;2023-06-22T09:08:10;1999.90;;;999.90;;
40787;SDS011;26497;52.494;7.546;2023-06-22T09:10:38;1999.90;;;999.90;;
40787;SDS011;26497;52.494;7.546;2023-06-22T09:13:05;1999.90;;;999.90;;
40787;SDS011;26497;52.494;7.546;2023-06-22T09:15:32;1999.90;;;999.90;;
40787;SDS011;26497;52.494;7.546;2023-06-22T09:18:00;1999.90;;;999.90;;
40787;SDS011;26497;52.494;7.546;2023-06-22T09:20:29;1999.90;;;999.90;;
40787;SDS011;26497;52.494;7.546;2023-06-22T09:22:56;1999.90;;;999.90;;
40787;SDS011;26497;52.494;7.546;2023-06-22T09:25:24;1999.90;;;999.90;;
40787;SDS011;26497;52.494;7.546;2023-06-22T09:27:51;1999.90;;;999.90;;
40787;SDS011;26497;52.494;7.546;2023-06-22T09:30:18;1999.90;;;999.90;;
40787;SDS011;26497;52.494;7.546;2023-06-22T09:32:46;1999.90;;;999.90;;
40787;SDS011;26497;52.494;7.546;2023-06-22T09:35:13;1999.90;;;999.90;;
40787;SDS011;26497;52.494;7.546;2023-06-22T09:37:42;1999.90;;;999.90;;
40787;SDS011;26497;52.494;7.546;2023-06-22T09:40:10;1999.90;;;999.90;;
40787;SDS011;26497;52.494;7.546;2023-06-22T09:42:41;1999.90;;;999.90;;
40787;SDS011;26497;52.494;7.546;2023-06-22T09:45:08;1999.90;;;999.90;;
40787;SDS011;26497;52.494;7.546;2023-06-22T09:47:36;1999.90;;;999.90;;
40787;SDS011;26497;52.494;7.546;2023-06-22T09:50:04;1999.90;;;999.90;;
40787;SDS011;26497;52.494;7.546;2023-06-22T09:52:32;1999.90;;;999.90;;
40787;SDS011;26497;52.494;7.546;2023-06-22T09:55:01;1999.90;;;999.90;;
40787;SDS011;26497;52.494;7.546;2023-06-22T09:57:29;1999.90;;;999.90;;
40787;SDS011;26497;52.494;7.546;2023-06-22T09:59:56;1999.90;;;999.90;;
40787;SDS011;26497;52.494;7.546;2023-06-22T10:02:24;1999.90;;;999.90;;
40787;SDS011;26497;52.494;7.546;2023-06-22T10:04:51;1999.90;;;999.90;;
40787;SDS011;26497;52.494;7.546;2023-06-22T10:07:18;1999.90;;;999.90;;
40787;SDS011;26497;52.494;7.546;2023-06-22T10:09:45;1999.90;;;999.90;;
40787;SDS011;26497;52.494;7.546;2023-06-22T10:12:14;1999.90;;;999.90;;
40787;SDS011;26497;52.494;7.546;2023-06-22T10:14:41;1999.90;;;999.90;;
40787;SDS011;26497;52.494;7.546;2023-06-22T10:17:08;1999.90;;;999.90;;
40787;SDS011;26497;52.494;7.546;2023-06-22T10:19:36;1999.90;;;999.90;;
40787;SDS011;26497;52.494;7.546;2023-06-22T10:22:24;1999.90;;;999.90;;
40787;SDS011;26497;52.494;7.546;2023-06-22T10:24:55;1999.90;;;999.90;;
40787;SDS011;26497;52.494;7.546;2023-06-22T10:27:24;1999.90;;;999.90;;
40787;SDS011;26497;52.494;7.546;2023-06-22T10:29:51;1999.90;;;999.90;;
40787;SDS011;26497;52.494;7.546;2023-06-22T10:32:19;1999.90;;;999.90;;
40787;SDS011;26497;52.494;7.546;2023-06-22T10:34:46;1999.90;;;999.90;;
40787;SDS011;26497;52.494;7.546;2023-06-22T10:37:15;1999.90;;;999.90;;
40787;SDS011;26497;52.494;7.546;2023-06-22T10:39:43;1999.90;;;999.90;;
40787;SDS011;26497;52.494;7.546;2023-06-22T10:42:10;1999.90;;;999.90;;
40787;SDS011;26497;52.494;7.546;2023-06-22T10:44:39;1999.90;;;999.90;;
40787;SDS011;26497;52.494;7.546;2023-06-22T10:47:09;1999.90;;;999.90;;
40787;SDS011;26497;52.494;7.546;2023-06-22T10:49:37;1999.90;;;999.90;;
40787;SDS011;26497;52.494;7.546;2023-06-22T10:52:05;1999.90;;;999.90;;
40787;SDS011;26497;52.494;7.546;2023-06-22T10:54:34;1999.90;;;999.90;;
40787;SDS011;26497;52.494;7.546;2023-06-22T10:57:03;1999.90;;;999.90;;
40787;SDS011;26497;52.494;7.546;2023-06-22T10:59:31;1999.90;;;999.90;;
40787;SDS011;26497;52.494;7.546;2023-06-22T11:01:59;1999.90;;;999.90;;
40787;SDS011;26497;52.494;7.546;2023-06-22T11:04:27;1999.90;;;999.90;;
40787;SDS011;26497;52.494;7.546;2023-06-22T11:06:54;1999.90;;;999.90;;
40787;SDS011;26497;52.494;7.546;2023-06-22T11:09:22;1999.90;;;999.90;;
40787;SDS011;26497;52.494;7.546;2023-06-22T11:11:50;1999.90;;;999.90;;
40787;SDS011;26497;52.494;7.546;2023-06-22T11:14:19;1999.90;;;999.90;;
40787;SDS011;26497;52.494;7.546;2023-06-22T11:16:46;1999.90;;;999.90;;
40787;SDS011;26497;52.494;7.546;2023-06-22T11:19:15;1999.90;;;999.90;;
40787;SDS011;26497;52.494;7.546;2023-06-22T11:21:42;1999.90;;;999.90;;
40787;SDS011;26497;52.494;7.546;2023-06-22T11:24:13;1999.90;;;999.90;;
40787;SDS011;26497;52.494;7.546;2023-06-22T11:26:41;1999.90;;;999.90;;
40787;SDS011;26497;52.494;7.546;2023-06-22T11:29:08;1999.90;;;999.90;;
40787;SDS011;26497;52.494;7.546;2023-06-22T11:31:35;1999.90;;;999.90;;
40787;SDS011;26497;52.494;7.546;2023-06-22T11:34:03;1999.90;;;999.90;;
40787;SDS011;26497;52.494;7.546;2023-06-22T11:36:31;1999.90;;;999.90;;
40787;SDS011;26497;52.494;7.546;2023-06-22T11:39:00;1999.90;;;999.90;;
40787;SDS011;26497;52.494;7.546;2023-06-22T11:41:27;1999.90;;;999.90;;
40787;SDS011;26497;52.494;7.546;2023-06-22T11:43:54;1999.90;;;999.90;;
40787;SDS011;26497;52.494;7.546;2023-06-22T11:46:21;1999.90;;;999.90;;
40787;SDS011;26497;52.494;7.546;2023-06-22T11:48:49;1999.90;;;999.90;;
40787;SDS011;26497;52.494;7.546;2023-06-22T11:51:16;1999.90;;;999.90;;
40787;SDS011;26497;52.494;7.546;2023-06-22T11:53:48;1999.90;;;999.90;;
40787;SDS011;26497;52.494;7.546;2023-06-22T11:56:15;1999.90;;;999.90;;
40787;SDS011;26497;52.494;7.546;2023-06-22T11:58:42;1999.90;;;999.90;;
40787;SDS011;26497;52.494;7.546;2023-06-22T12:01:09;1999.90;;;999.90;;
40787;SDS011;26497;52.494;7.546;2023-06-22T12:03:40;1999.90;;;999.90;;
40787;SDS011;26497;52.494;7.546;2023-06-22T12:06:08;1999.90;;;999.90;;
40787;SDS011;26497;52.494;7.546;2023-06-22T12:08:35;1999.90;;;999.90;;
40787;SDS011;26497;52.494;7.546;2023-06-22T12:11:04;1999.90;;;999.90;;
40787;SDS011;26497;52.494;7.546;2023-06-22T12:13:32;1999.90;;;999.90;;
40787;SDS011;26497;52.494;7.546;2023-06-22T12:15:59;1999.90;;;999.90;;
40787;SDS011;26497;52.494;7.546;2023-06-22T12:18:26;1999.90;;;999.90;;
40787;SDS011;26497;52.494;7.546;2023-06-22T12:20:53;1999.90;;;999.90;;
40787;SDS011;26497;52.494;7.546;2023-06-22T12:23:20;1999.90;;;999.90;;
40787;SDS011;26497;52.494;7.546;2023-06-22T12:25:48;1999.90;;;999.90;;
40787;SDS011;26497;52.494;7.546;2023-06-22T12:28:16;1999.90;;;999.90;;
40787;SDS011;26497;52.494;7.546;2023-06-22T12:30:43;1999.90;;;999.90;;
40787;SDS011;26497;52.494;7.546;2023-06-22T12:33:13;1999.90;;;999.90;;
40787;SDS011;26497;52.494;7.546;2023-06-22T12:35:41;1999.90;;;999.90;;
40787;SDS011;26497;52.494;7.546;2023-06-22T12:38:10;1999.90;;;999.90;;
40787;SDS011;26497;52.494;7.546;2023-06-22T12:40:37;1999.90;;;999.90;;
40787;SDS011;26497;52.494;7.546;2023-06-22T12:43:04;1999.90;;;999.90;;
40787;SDS011;26497;52.494;7.546;2023-06-22T12:45:34;1999.90;;;999.90;;
40787;SDS011;26497;52.494;7.546;2023-06-22T12:48:04;1999.90;;;999.90;;
40787;SDS011;26497;52.494;7.546;2023-06-22T12:50:33;1999.90;;;999.90;;
40787;SDS011;26497;52.494;7.546;2023-06-22T12:53:00;1999.90;;;999.90;;
40787;SDS011;26497;52.494;7.546;2023-06-22T12:55:29;1999.90;;;999.90;;
40787;SDS011;26497;52.494;7.546;2023-06-22T12:57:56;1999.90;;;999.90;;
40787;SDS011;26497;52.494;7.546;2023-06-22T13:00:23;1999.90;;;999.90;;
40787;SDS011;26497;52.494;7.546;2023-06-22T13:02:53;1999.90;;;999.90;;
40787;SDS011;26497;52.494;7.546;2023-06-22T13:05:20;1999.90;;;999.90;;
40787;SDS011;26497;52.494;7.546;2023-06-22T13:07:48;1999.90;;;999.90;;
40787;SDS011;26497;52.494;7.546;2023-06-22T13:10:15;1999.90;;;999.90;;
40787;SDS011;26497;52.494;7.546;2023-06-22T13:12:43;1999.90;;;999.90;;
40787;SDS011;26497;52.494;7.546;2023-06-22T13:15:10;1999.90;;;999.90;;
40787;SDS011;26497;52.494;7.546;2023-06-22T13:17:39;1999.90;;;999.90;;
40787;SDS011;26497;52.494;7.546;2023-06-22T13:20:09;1999.90;;;999.90;;
40787;SDS011;26497;52.494;7.546;2023-06-22T13:22:37;1999.90;;;999.90;;
40787;SDS011;26497;52.494;7.546;2023-06-22T13:25:08;1999.90;;;999.90;;
40787;SDS011;26497;52.494;7.546;2023-06-22T13:27:37;1999.90;;;999.90;;
40787;SDS011;26497;52.494;7.546;2023-06-22T13:30:05;261.63;;;246.50;;
40787;SDS011;26497;52.494;7.546;2023-06-22T13:32:34;239.55;;;225.95;;
40787;SDS011;26497;52.494;7.546;2023-06-22T13:35:01;248.68;;;234.38;;
40787;SDS011;26497;52.494;7.546;2023-06-22T13:37:30;253.57;;;238.95;;
40787;SDS011;26497;52.494;7.546;2023-06-22T13:39:57;244.98;;;230.30;;
40787;SDS011;26497;52.494;7.546;2023-06-22T13:42:25;226.60;;;212.73;;
40787;SDS011;26497;52.494;7.546;2023-06-22T13:44:52;1999.90;;;999.90;;
40787;SDS011;26497;52.494;7.546;2023-06-22T13:47:19;1999.90;;;999.90;;
40787;SDS011;26497;52.494;7.546;2023-06-22T13:49:46;1999.90;;;999.90;;
40787;SDS011;26497;52.494;7.546;2023-06-22T13:52:14;1999.90;;;999.90;;
40787;SDS011;26497;52.494;7.546;2023-06-22T13:54:42;1999.90;;;999.90;;
40787;SDS011;26497;52.494;7.546;2023-06-22T13:57:10;1999.90;;;999.90;;
40787;SDS011;26497;52.494;7.546;2023-06-22T13:59:37;1999.90;;;999.90;;
40787;SDS011;26497;52.494;7.546;2023-06-22T14:02:04;1999.90;;;999.90;;
40787;SDS011;26497;52.494;7.546;2023-06-22T14:04:32;1999.90;;;999.90;;
40787;SDS011;26497;52.494;7.546;2023-06-22T14:06:59;1999.90;;;999.90;;
40787;SDS011;26497;52.494;7.546;2023-06-22T14:09:27;1999.90;;;999.90;;
40787;SDS011;26497;52.494;7.546;2023-06-22T14:11:55;1999.90;;;999.90;;
40787;SDS011;26497;52.494;7.546;2023-06-22T14:14:22;1999.90;;;999.90;;
40787;SDS011;26497;52.494;7.546;2023-06-22T14:16:50;1999.90;;;999.90;;
40787;SDS011;26497;52.494;7.546;2023-06-22T14:19:17;1999.90;;;999.90;;